sensor_id;sensor_type;location;lat;lon;timestamp;P1;durP1;ratioP1;P2;durP2;ratioP2
73266;SDS011;61495;53.400;7.608;2022-11-12T00:00:18;11.18;;;5.38;;
73266;SDS011;61495;53.400;7.608;2022-11-12T00:02:43;13.52;;;6.00;;
73266;SDS011;61495;53.400;7.608;2022-11-12T00:05:09;12.25;;;5.88;;
73266;SDS011;61495;53.400;7.608;2022-11-12T00:07:34;11.85;;;5.57;;
73266;SDS011;61495;53.400;7.608;2022-11-12T00:10:00;9.55;;;5.03;;
73266;SDS011;61495;53.400;7.608;2022-11-12T00:12:25;10.43;;;4.82;;
73266;SDS011;61495;53.400;7.608;2022-11-12T00:14:51;10.07;;;4.90;;
73266;SDS011;61495;53.400;7.608;2022-11-12T00:17:16;10.52;;;5.88;;
73266;SDS011;61495;53.400;7.608;2022-11-12T00:19:42;10.32;;;5.93;;
73266;SDS011;61495;53.400;7.608;2022-11-12T00:22:07;11.50;;;5.68;;
73266;SDS011;61495;53.400;7.608;2022-11-12T00:24:32;10.43;;;5.40;;
73266;SDS011;61495;53.400;7.608;2022-11-12T00:26:58;10.35;;;5.25;;
73266;SDS011;61495;53.400;7.608;2022-11-12T00:29:23;15.20;;;6.20;;
73266;SDS011;61495;53.400;7.608;2022-11-12T00:31:48;10.45;;;4.32;;
73266;SDS011;61495;53.400;7.608;2022-11-12T00:34:14;8.57;;;4.70;;
73266;SDS011;61495;53.400;7.608;2022-11-12T00:36:39;7.75;;;4.43;;
73266;SDS011;61495;53.400;7.608;2022-11-12T00:39:05;9.23;;;4.28;;
73266;SDS011;61495;53.400;7.608;2022-11-12T00:41:30;10.10;;;4.82;;
73266;SDS011;61495;53.400;7.608;2022-11-12T00:43:55;10.32;;;5.05;;
73266;SDS011;61495;53.400;7.608;2022-11-12T00:46:21;8.60;;;4.47;;
73266;SDS011;61495;53.400;7.608;2022-11-12T00:48:46;7.25;;;3.13;;
73266;SDS011;61495;53.400;7.608;2022-11-12T00:51:11;7.63;;;3.35;;
73266;SDS011;61495;53.400;7.608;2022-11-12T00:53:37;7.35;;;3.58;;
73266;SDS011;61495;53.400;7.608;2022-11-12T00:56:03;8.68;;;4.78;;
73266;SDS011;61495;53.400;7.608;2022-11-12T00:58:30;8.82;;;4.25;;
73266;SDS011;61495;53.400;7.608;2022-11-12T01:00:57;8.52;;;4.80;;
73266;SDS011;61495;53.400;7.608;2022-11-12T01:03:32;9.15;;;4.93;;
73266;SDS011;61495;53.400;7.608;2022-11-12T01:06:01;11.98;;;5.55;;
73266;SDS011;61495;53.400;7.608;2022-11-12T01:08:30;11.20;;;5.60;;
73266;SDS011;61495;53.400;7.608;2022-11-12T01:10:55;12.18;;;6.00;;
73266;SDS011;61495;53.400;7.608;2022-11-12T01:13:20;9.70;;;5.15;;
73266;SDS011;61495;53.400;7.608;2022-11-12T01:15:46;8.07;;;4.15;;
73266;SDS011;61495;53.400;7.608;2022-11-12T01:18:11;7.82;;;4.03;;
73266;SDS011;61495;53.400;7.608;2022-11-12T01:20:37;10.27;;;4.70;;
73266;SDS011;61495;53.400;7.608;2022-11-12T01:23:03;10.25;;;5.07;;
73266;SDS011;61495;53.400;7.608;2022-11-12T01:25:29;10.55;;;5.43;;
73266;SDS011;61495;53.400;7.608;2022-11-12T01:27:55;10.30;;;5.68;;
73266;SDS011;61495;53.400;7.608;2022-11-12T01:30:20;11.52;;;5.88;;
73266;SDS011;61495;53.400;7.608;2022-11-12T01:32:45;10.35;;;4.85;;
73266;SDS011;61495;53.400;7.608;2022-11-12T01:35:11;10.80;;;5.40;;
73266;SDS011;61495;53.400;7.608;2022-11-12T01:37:36;13.80;;;5.88;;
73266;SDS011;61495;53.400;7.608;2022-11-12T01:40:02;10.88;;;5.63;;
73266;SDS011;61495;53.400;7.608;2022-11-12T01:42:30;15.30;;;5.78;;
73266;SDS011;61495;53.400;7.608;2022-11-12T01:44:56;10.93;;;6.15;;
73266;SDS011;61495;53.400;7.608;2022-11-12T01:47:23;13.52;;;6.35;;
73266;SDS011;61495;53.400;7.608;2022-11-12T01:52:26;12.48;;;5.88;;
73266;SDS011;61495;53.400;7.608;2022-11-12T01:57:25;9.48;;;5.13;;
73266;SDS011;61495;53.400;7.608;2022-11-12T01:59:55;10.70;;;5.75;;
73266;SDS011;61495;53.400;7.608;2022-11-12T02:02:25;8.88;;;4.90;;
73266;SDS011;61495;53.400;7.608;2022-11-12T02:04:51;9.07;;;5.10;;
73266;SDS011;61495;53.400;7.608;2022-11-12T02:07:18;8.75;;;5.60;;
73266;SDS011;61495;53.400;7.608;2022-11-12T02:09:47;9.93;;;5.60;;
73266;SDS011;61495;53.400;7.608;2022-11-12T02:12:12;10.18;;;5.43;;
73266;SDS011;61495;53.400;7.608;2022-11-12T02:14:58;10.05;;;5.20;;
73266;SDS011;61495;53.400;7.608;2022-11-12T02:17:23;8.10;;;4.68;;
73266;SDS011;61495;53.400;7.608;2022-11-12T02:19:50;7.57;;;4.05;;
73266;SDS011;61495;53.400;7.608;2022-11-12T02:22:16;12.00;;;5.57;;
73266;SDS011;61495;53.400;7.608;2022-11-12T02:24:42;10.90;;;5.65;;
73266;SDS011;61495;53.400;7.608;2022-11-12T02:27:07;11.07;;;5.97;;
73266;SDS011;61495;53.400;7.608;2022-11-12T02:29:35;11.38;;;5.72;;
73266;SDS011;61495;53.400;7.608;2022-11-12T02:32:00;8.30;;;4.72;;
73266;SDS011;61495;53.400;7.608;2022-11-12T02:34:25;9.52;;;4.57;;
73266;SDS011;61495;53.400;7.608;2022-11-12T02:36:51;9.18;;;5.30;;
73266;SDS011;61495;53.400;7.608;2022-11-12T02:39:17;9.52;;;5.28;;
73266;SDS011;61495;53.400;7.608;2022-11-12T02:41:43;9.25;;;5.32;;
73266;SDS011;61495;53.400;7.608;2022-11-12T02:44:08;10.95;;;5.57;;
73266;SDS011;61495;53.400;7.608;2022-11-12T02:46:34;10.38;;;5.35;;
73266;SDS011;61495;53.400;7.608;2022-11-12T02:48:59;8.77;;;4.47;;
73266;SDS011;61495;53.400;7.608;2022-11-12T02:51:25;9.63;;;5.25;;
73266;SDS011;61495;53.400;7.608;2022-11-12T02:53:51;12.93;;;6.38;;
73266;SDS011;61495;53.400;7.608;2022-11-12T02:56:17;10.48;;;5.20;;
73266;SDS011;61495;53.400;7.608;2022-11-12T02:58:43;9.00;;;4.95;;
73266;SDS011;61495;53.400;7.608;2022-11-12T03:01:08;10.00;;;5.47;;
73266;SDS011;61495;53.400;7.608;2022-11-12T03:03:34;11.02;;;6.40;;
73266;SDS011;61495;53.400;7.608;2022-11-12T03:06:00;11.63;;;5.97;;
73266;SDS011;61495;53.400;7.608;2022-11-12T03:08:25;11.70;;;6.50;;
73266;SDS011;61495;53.400;7.608;2022-11-12T03:10:51;11.18;;;6.43;;
73266;SDS011;61495;53.400;7.608;2022-11-12T03:13:17;11.80;;;6.15;;
73266;SDS011;61495;53.400;7.608;2022-11-12T03:15:43;11.45;;;5.32;;
73266;SDS011;61495;53.400;7.608;2022-11-12T03:18:08;12.65;;;5.88;;
73266;SDS011;61495;53.400;7.608;2022-11-12T03:20:34;11.70;;;6.05;;
73266;SDS011;61495;53.400;7.608;2022-11-12T03:23:00;12.13;;;6.28;;
73266;SDS011;61495;53.400;7.608;2022-11-12T03:25:28;12.32;;;7.13;;
73266;SDS011;61495;53.400;7.608;2022-11-12T03:28:04;11.00;;;5.78;;
73266;SDS011;61495;53.400;7.608;2022-11-12T03:30:35;13.40;;;6.60;;
73266;SDS011;61495;53.400;7.608;2022-11-12T03:33:03;9.10;;;4.60;;
73266;SDS011;61495;53.400;7.608;2022-11-12T03:35:29;8.57;;;5.13;;
73266;SDS011;61495;53.400;7.608;2022-11-12T03:37:56;8.30;;;4.88;;
73266;SDS011;61495;53.400;7.608;2022-11-12T03:40:21;8.70;;;4.75;;
73266;SDS011;61495;53.400;7.608;2022-11-12T03:42:47;12.05;;;5.60;;
73266;SDS011;61495;53.400;7.608;2022-11-12T03:45:14;12.80;;;5.53;;
73266;SDS011;61495;53.400;7.608;2022-11-12T03:47:41;11.70;;;5.65;;
73266;SDS011;61495;53.400;7.608;2022-11-12T03:50:10;11.82;;;6.35;;
73266;SDS011;61495;53.400;7.608;2022-11-12T03:52:37;12.98;;;6.28;;
73266;SDS011;61495;53.400;7.608;2022-11-12T03:55:03;15.00;;;7.03;;
73266;SDS011;61495;53.400;7.608;2022-11-12T03:57:30;14.85;;;6.90;;
73266;SDS011;61495;53.400;7.608;2022-11-12T03:59:55;12.77;;;6.25;;
73266;SDS011;61495;53.400;7.608;2022-11-12T04:02:21;11.90;;;6.50;;
73266;SDS011;61495;53.400;7.608;2022-11-12T04:04:46;9.82;;;5.90;;
73266;SDS011;61495;53.400;7.608;2022-11-12T04:07:30;8.55;;;5.03;;
73266;SDS011;61495;53.400;7.608;2022-11-12T04:10:14;9.02;;;5.18;;
73266;SDS011;61495;53.400;7.608;2022-11-12T04:12:39;12.77;;;5.95;;
73266;SDS011;61495;53.400;7.608;2022-11-12T04:15:23;14.70;;;6.97;;
73266;SDS011;61495;53.400;7.608;2022-11-12T04:17:49;12.63;;;6.50;;
73266;SDS011;61495;53.400;7.608;2022-11-12T04:20:33;11.93;;;6.18;;
73266;SDS011;61495;53.400;7.608;2022-11-12T04:23:17;12.68;;;6.78;;
73266;SDS011;61495;53.400;7.608;2022-11-12T04:25:42;14.18;;;6.75;;
73266;SDS011;61495;53.400;7.608;2022-11-12T04:28:26;14.13;;;6.57;;
73266;SDS011;61495;53.400;7.608;2022-11-12T04:30:52;11.68;;;6.82;;
73266;SDS011;61495;53.400;7.608;2022-11-12T04:33:17;11.95;;;6.28;;
73266;SDS011;61495;53.400;7.608;2022-11-12T04:35:42;12.45;;;6.28;;
73266;SDS011;61495;53.400;7.608;2022-11-12T04:38:08;11.25;;;5.85;;
73266;SDS011;61495;53.400;7.608;2022-11-12T04:40:33;10.55;;;5.80;;
73266;SDS011;61495;53.400;7.608;2022-11-12T04:43:17;9.38;;;5.15;;
73266;SDS011;61495;53.400;7.608;2022-11-12T04:46:02;11.10;;;6.78;;
73266;SDS011;61495;53.400;7.608;2022-11-12T04:48:28;10.90;;;5.65;;
73266;SDS011;61495;53.400;7.608;2022-11-12T04:50:55;11.07;;;5.13;;
73266;SDS011;61495;53.400;7.608;2022-11-12T04:53:24;12.75;;;5.30;;
73266;SDS011;61495;53.400;7.608;2022-11-12T04:55:51;9.70;;;5.40;;
73266;SDS011;61495;53.400;7.608;2022-11-12T04:58:18;10.07;;;5.47;;
73266;SDS011;61495;53.400;7.608;2022-11-12T05:00:44;9.93;;;5.60;;
73266;SDS011;61495;53.400;7.608;2022-11-12T05:03:09;13.07;;;5.03;;
73266;SDS011;61495;53.400;7.608;2022-11-12T05:05:35;9.55;;;5.00;;
73266;SDS011;61495;53.400;7.608;2022-11-12T05:08:00;9.63;;;5.05;;
73266;SDS011;61495;53.400;7.608;2022-11-12T05:10:26;8.63;;;4.65;;
73266;SDS011;61495;53.400;7.608;2022-11-12T05:12:52;9.30;;;4.63;;
73266;SDS011;61495;53.400;7.608;2022-11-12T05:15:17;10.80;;;5.82;;
73266;SDS011;61495;53.400;7.608;2022-11-12T05:17:43;10.32;;;5.32;;
73266;SDS011;61495;53.400;7.608;2022-11-12T05:20:12;10.07;;;6.07;;
73266;SDS011;61495;53.400;7.608;2022-11-12T05:22:38;9.32;;;4.82;;
73266;SDS011;61495;53.400;7.608;2022-11-12T05:25:04;9.77;;;4.65;;
73266;SDS011;61495;53.400;7.608;2022-11-12T05:27:31;9.18;;;4.68;;
73266;SDS011;61495;53.400;7.608;2022-11-12T05:29:57;8.25;;;4.40;;
73266;SDS011;61495;53.400;7.608;2022-11-12T05:32:22;7.90;;;4.25;;
73266;SDS011;61495;53.400;7.608;2022-11-12T05:34:47;8.35;;;4.70;;
73266;SDS011;61495;53.400;7.608;2022-11-12T05:37:13;8.85;;;4.85;;
73266;SDS011;61495;53.400;7.608;2022-11-12T05:39:39;8.15;;;4.43;;
73266;SDS011;61495;53.400;7.608;2022-11-12T05:42:05;9.20;;;4.35;;
73266;SDS011;61495;53.400;7.608;2022-11-12T05:44:31;7.22;;;4.15;;
73266;SDS011;61495;53.400;7.608;2022-11-12T05:46:56;8.63;;;4.03;;
73266;SDS011;61495;53.400;7.608;2022-11-12T05:49:22;7.63;;;3.97;;
73266;SDS011;61495;53.400;7.608;2022-11-12T05:51:47;15.82;;;6.50;;
73266;SDS011;61495;53.400;7.608;2022-11-12T05:54:12;11.48;;;5.57;;
73266;SDS011;61495;53.400;7.608;2022-11-12T05:56:38;8.85;;;3.97;;
73266;SDS011;61495;53.400;7.608;2022-11-12T05:59:05;8.52;;;4.20;;
73266;SDS011;61495;53.400;7.608;2022-11-12T06:01:32;9.60;;;4.63;;
73266;SDS011;61495;53.400;7.608;2022-11-12T06:03:59;11.00;;;5.70;;
73266;SDS011;61495;53.400;7.608;2022-11-12T06:06:25;15.02;;;7.60;;
73266;SDS011;61495;53.400;7.608;2022-11-12T06:08:50;14.07;;;6.78;;
73266;SDS011;61495;53.400;7.608;2022-11-12T06:11:16;13.10;;;5.80;;
73266;SDS011;61495;53.400;7.608;2022-11-12T06:13:41;8.20;;;4.43;;
73266;SDS011;61495;53.400;7.608;2022-11-12T06:16:07;8.77;;;4.45;;
73266;SDS011;61495;53.400;7.608;2022-11-12T06:18:33;8.00;;;4.18;;
73266;SDS011;61495;53.400;7.608;2022-11-12T06:21:02;10.45;;;5.80;;
73266;SDS011;61495;53.400;7.608;2022-11-12T06:23:44;12.73;;;6.32;;
73266;SDS011;61495;53.400;7.608;2022-11-12T06:26:17;11.70;;;6.10;;
73266;SDS011;61495;53.400;7.608;2022-11-12T06:28:43;13.38;;;6.03;;
73266;SDS011;61495;53.400;7.608;2022-11-12T06:31:09;7.95;;;4.00;;
73266;SDS011;61495;53.400;7.608;2022-11-12T06:33:34;12.55;;;5.72;;
73266;SDS011;61495;53.400;7.608;2022-11-12T06:36:01;9.85;;;5.55;;
73266;SDS011;61495;53.400;7.608;2022-11-12T06:38:28;9.07;;;3.88;;
73266;SDS011;61495;53.400;7.608;2022-11-12T06:40:54;6.95;;;3.55;;
73266;SDS011;61495;53.400;7.608;2022-11-12T06:43:20;7.57;;;3.95;;
73266;SDS011;61495;53.400;7.608;2022-11-12T06:45:45;6.03;;;3.10;;
73266;SDS011;61495;53.400;7.608;2022-11-12T06:48:11;7.95;;;3.53;;
73266;SDS011;61495;53.400;7.608;2022-11-12T06:50:36;5.82;;;3.85;;
73266;SDS011;61495;53.400;7.608;2022-11-12T06:53:01;8.65;;;4.75;;
73266;SDS011;61495;53.400;7.608;2022-11-12T06:55:27;8.60;;;4.97;;
73266;SDS011;61495;53.400;7.608;2022-11-12T06:57:52;8.43;;;5.07;;
73266;SDS011;61495;53.400;7.608;2022-11-12T07:00:18;6.32;;;3.72;;
73266;SDS011;61495;53.400;7.608;2022-11-12T07:02:44;8.32;;;4.25;;
73266;SDS011;61495;53.400;7.608;2022-11-12T07:05:09;9.15;;;5.03;;
73266;SDS011;61495;53.400;7.608;2022-11-12T07:07:35;9.52;;;5.15;;
73266;SDS011;61495;53.400;7.608;2022-11-12T07:10:00;7.32;;;3.40;;
73266;SDS011;61495;53.400;7.608;2022-11-12T07:12:25;8.50;;;3.70;;
73266;SDS011;61495;53.400;7.608;2022-11-12T07:14:51;7.28;;;3.92;;
73266;SDS011;61495;53.400;7.608;2022-11-12T07:17:17;8.70;;;3.92;;
73266;SDS011;61495;53.400;7.608;2022-11-12T07:19:42;7.03;;;4.07;;
73266;SDS011;61495;53.400;7.608;2022-11-12T07:22:08;6.93;;;3.80;;
73266;SDS011;61495;53.400;7.608;2022-11-12T07:24:33;9.32;;;3.67;;
73266;SDS011;61495;53.400;7.608;2022-11-12T07:26:58;9.13;;;5.10;;
73266;SDS011;61495;53.400;7.608;2022-11-12T07:29:24;9.23;;;4.63;;
73266;SDS011;61495;53.400;7.608;2022-11-12T07:31:49;6.95;;;3.60;;
73266;SDS011;61495;53.400;7.608;2022-11-12T07:34:14;8.25;;;3.60;;
73266;SDS011;61495;53.400;7.608;2022-11-12T07:36:40;7.00;;;3.15;;
73266;SDS011;61495;53.400;7.608;2022-11-12T07:39:05;6.60;;;3.17;;
73266;SDS011;61495;53.400;7.608;2022-11-12T07:41:31;6.00;;;3.28;;
73266;SDS011;61495;53.400;7.608;2022-11-12T07:43:56;8.50;;;3.22;;
73266;SDS011;61495;53.400;7.608;2022-11-12T07:46:23;5.47;;;2.92;;
73266;SDS011;61495;53.400;7.608;2022-11-12T07:48:50;9.00;;;4.20;;
73266;SDS011;61495;53.400;7.608;2022-11-12T07:53:50;8.35;;;4.38;;
73266;SDS011;61495;53.400;7.608;2022-11-12T07:56:18;9.18;;;3.95;;
73266;SDS011;61495;53.400;7.608;2022-11-12T07:58:46;7.20;;;4.07;;
73266;SDS011;61495;53.400;7.608;2022-11-12T08:01:29;9.20;;;3.92;;
73266;SDS011;61495;53.400;7.608;2022-11-12T08:03:58;8.15;;;4.13;;
73266;SDS011;61495;53.400;7.608;2022-11-12T08:06:25;8.80;;;4.25;;
73266;SDS011;61495;53.400;7.608;2022-11-12T08:08:52;8.80;;;4.60;;
73266;SDS011;61495;53.400;7.608;2022-11-12T08:11:21;9.82;;;5.05;;
73266;SDS011;61495;53.400;7.608;2022-11-12T08:13:51;10.88;;;4.82;;
73266;SDS011;61495;53.400;7.608;2022-11-12T08:16:29;9.70;;;4.85;;
73266;SDS011;61495;53.400;7.608;2022-11-12T08:18:54;11.10;;;5.47;;
73266;SDS011;61495;53.400;7.608;2022-11-12T08:21:20;9.48;;;5.60;;
73266;SDS011;61495;53.400;7.608;2022-11-12T08:23:45;11.40;;;5.63;;
73266;SDS011;61495;53.400;7.608;2022-11-12T08:26:11;12.95;;;6.53;;
73266;SDS011;61495;53.400;7.608;2022-11-12T08:28:38;15.60;;;6.15;;
73266;SDS011;61495;53.400;7.608;2022-11-12T08:31:07;11.77;;;5.88;;
73266;SDS011;61495;53.400;7.608;2022-11-12T08:33:34;12.02;;;6.88;;
73266;SDS011;61495;53.400;7.608;2022-11-12T08:36:06;12.55;;;6.10;;
73266;SDS011;61495;53.400;7.608;2022-11-12T08:38:33;12.10;;;6.03;;
73266;SDS011;61495;53.400;7.608;2022-11-12T08:41:00;11.60;;;6.32;;
73266;SDS011;61495;53.400;7.608;2022-11-12T08:43:29;12.23;;;5.93;;
73266;SDS011;61495;53.400;7.608;2022-11-12T08:45:56;9.75;;;5.60;;
73266;SDS011;61495;53.400;7.608;2022-11-12T08:48:22;10.70;;;6.07;;
73266;SDS011;61495;53.400;7.608;2022-11-12T08:50:48;11.18;;;5.70;;
73266;SDS011;61495;53.400;7.608;2022-11-12T08:53:13;11.10;;;6.50;;
73266;SDS011;61495;53.400;7.608;2022-11-12T08:55:39;13.73;;;6.55;;
73266;SDS011;61495;53.400;7.608;2022-11-12T08:58:04;11.35;;;6.32;;
73266;SDS011;61495;53.400;7.608;2022-11-12T09:00:31;14.98;;;7.00;;
73266;SDS011;61495;53.400;7.608;2022-11-12T09:02:59;11.77;;;6.85;;
73266;SDS011;61495;53.400;7.608;2022-11-12T09:05:25;14.32;;;6.70;;
73266;SDS011;61495;53.400;7.608;2022-11-12T09:08:02;10.90;;;6.88;;
73266;SDS011;61495;53.400;7.608;2022-11-12T09:10:32;12.57;;;7.68;;
73266;SDS011;61495;53.400;7.608;2022-11-12T09:12:58;14.48;;;7.78;;
73266;SDS011;61495;53.400;7.608;2022-11-12T09:15:24;15.65;;;8.35;;
73266;SDS011;61495;53.400;7.608;2022-11-12T09:17:56;16.65;;;8.70;;
73266;SDS011;61495;53.400;7.608;2022-11-12T09:20:25;18.60;;;8.60;;
73266;SDS011;61495;53.400;7.608;2022-11-12T09:22:52;17.98;;;9.00;;
73266;SDS011;61495;53.400;7.608;2022-11-12T09:25:18;17.88;;;9.70;;
73266;SDS011;61495;53.400;7.608;2022-11-12T09:27:44;17.63;;;10.60;;
73266;SDS011;61495;53.400;7.608;2022-11-12T09:30:10;19.13;;;10.48;;
73266;SDS011;61495;53.400;7.608;2022-11-12T09:32:35;16.42;;;9.75;;
73266;SDS011;61495;53.400;7.608;2022-11-12T09:35:01;19.00;;;9.52;;
73266;SDS011;61495;53.400;7.608;2022-11-12T09:37:27;18.77;;;10.38;;
73266;SDS011;61495;53.400;7.608;2022-11-12T09:39:52;17.98;;;10.00;;
73266;SDS011;61495;53.400;7.608;2022-11-12T09:42:18;15.73;;;8.63;;
73266;SDS011;61495;53.400;7.608;2022-11-12T09:44:49;20.95;;;10.82;;
73266;SDS011;61495;53.400;7.608;2022-11-12T09:47:19;15.75;;;10.65;;
73266;SDS011;61495;53.400;7.608;2022-11-12T09:49:54;15.68;;;9.90;;
73266;SDS011;61495;53.400;7.608;2022-11-12T09:52:39;20.38;;;10.25;;
73266;SDS011;61495;53.400;7.608;2022-11-12T09:55:17;18.35;;;10.75;;
73266;SDS011;61495;53.400;7.608;2022-11-12T09:57:50;15.23;;;9.55;;
73266;SDS011;61495;53.400;7.608;2022-11-12T10:00:18;17.10;;;11.23;;
73266;SDS011;61495;53.400;7.608;2022-11-12T10:05:28;21.92;;;11.27;;
73266;SDS011;61495;53.400;7.608;2022-11-12T10:13:37;16.40;;;8.90;;
73266;SDS011;61495;53.400;7.608;2022-11-12T10:16:32;16.27;;;9.25;;
73266;SDS011;61495;53.400;7.608;2022-11-12T10:25:11;17.10;;;9.85;;
73266;SDS011;61495;53.400;7.608;2022-11-12T10:27:41;18.75;;;9.95;;
73266;SDS011;61495;53.400;7.608;2022-11-12T10:32:44;14.38;;;8.30;;
73266;SDS011;61495;53.400;7.608;2022-11-12T10:35:12;14.93;;;8.88;;
73266;SDS011;61495;53.400;7.608;2022-11-12T10:37:52;18.42;;;9.73;;
73266;SDS011;61495;53.400;7.608;2022-11-12T10:40:36;21.30;;;10.48;;
73266;SDS011;61495;53.400;7.608;2022-11-12T10:43:21;17.08;;;9.90;;
73266;SDS011;61495;53.400;7.608;2022-11-12T10:45:48;19.00;;;10.82;;
73266;SDS011;61495;53.400;7.608;2022-11-12T10:48:27;20.27;;;10.63;;
73266;SDS011;61495;53.400;7.608;2022-11-12T10:50:57;21.60;;;11.55;;
73266;SDS011;61495;53.400;7.608;2022-11-12T10:53:33;20.20;;;9.40;;
73266;SDS011;61495;53.400;7.608;2022-11-12T10:56:08;18.27;;;10.25;;
73266;SDS011;61495;53.400;7.608;2022-11-12T10:59:13;15.27;;;9.52;;
73266;SDS011;61495;53.400;7.608;2022-11-12T11:01:43;19.23;;;9.57;;
73266;SDS011;61495;53.400;7.608;2022-11-12T11:04:18;22.20;;;9.57;;
73266;SDS011;61495;53.400;7.608;2022-11-12T11:07:06;14.85;;;8.63;;
73266;SDS011;61495;53.400;7.608;2022-11-12T11:09:54;14.88;;;9.45;;
73266;SDS011;61495;53.400;7.608;2022-11-12T11:12:31;13.98;;;8.90;;
73266;SDS011;61495;53.400;7.608;2022-11-12T11:15:06;20.92;;;11.25;;
73266;SDS011;61495;53.400;7.608;2022-11-12T11:17:42;16.98;;;10.00;;
73266;SDS011;61495;53.400;7.608;2022-11-12T11:20:15;16.48;;;9.90;;
73266;SDS011;61495;53.400;7.608;2022-11-12T11:23:34;16.48;;;9.68;;
73266;SDS011;61495;53.400;7.608;2022-11-12T11:25:36;17.00;;;8.82;;
73266;SDS011;61495;53.400;7.608;2022-11-12T11:30:29;15.30;;;8.60;;
73266;SDS011;61495;53.400;7.608;2022-11-12T11:47:04;16.52;;;10.60;;
73266;SDS011;61495;53.400;7.608;2022-11-12T11:58:30;16.73;;;9.13;;
73266;SDS011;61495;53.400;7.608;2022-11-12T12:03:54;15.00;;;9.23;;
73266;SDS011;61495;53.400;7.608;2022-11-12T12:07:02;14.80;;;9.30;;
73266;SDS011;61495;53.400;7.608;2022-11-12T12:09:44;17.88;;;10.30;;
73266;SDS011;61495;53.400;7.608;2022-11-12T12:12:25;14.45;;;8.63;;
73266;SDS011;61495;53.400;7.608;2022-11-12T12:21:13;15.13;;;8.98;;
73266;SDS011;61495;53.400;7.608;2022-11-12T12:23:43;16.15;;;9.15;;
73266;SDS011;61495;53.400;7.608;2022-11-12T12:26:22;15.10;;;8.82;;
73266;SDS011;61495;53.400;7.608;2022-11-12T12:31:30;19.10;;;9.65;;
73266;SDS011;61495;53.400;7.608;2022-11-12T12:34:03;15.98;;;9.48;;
73266;SDS011;61495;53.400;7.608;2022-11-12T12:36:39;15.00;;;9.60;;
73266;SDS011;61495;53.400;7.608;2022-11-12T12:41:56;13.07;;;8.63;;
73266;SDS011;61495;53.400;7.608;2022-11-12T12:44:26;15.02;;;8.95;;
73266;SDS011;61495;53.400;7.608;2022-11-12T12:47:17;14.80;;;8.65;;
73266;SDS011;61495;53.400;7.608;2022-11-12T12:49:44;16.10;;;9.55;;
73266;SDS011;61495;53.400;7.608;2022-11-12T12:52:12;13.55;;;8.98;;
73266;SDS011;61495;53.400;7.608;2022-11-12T12:57:24;12.30;;;8.20;;
73266;SDS011;61495;53.400;7.608;2022-11-12T13:00:23;14.88;;;9.20;;
73266;SDS011;61495;53.400;7.608;2022-11-12T13:02:50;14.45;;;8.82;;
73266;SDS011;61495;53.400;7.608;2022-11-12T13:07:51;12.98;;;8.55;;
73266;SDS011;61495;53.400;7.608;2022-11-12T13:15:46;13.15;;;8.00;;
73266;SDS011;61495;53.400;7.608;2022-11-12T13:21:20;13.20;;;8.10;;
73266;SDS011;61495;53.400;7.608;2022-11-12T13:23:49;13.02;;;8.15;;
73266;SDS011;61495;53.400;7.608;2022-11-12T13:26:44;12.50;;;7.97;;
73266;SDS011;61495;53.400;7.608;2022-11-12T13:37:47;13.10;;;7.82;;
73266;SDS011;61495;53.400;7.608;2022-11-12T13:40:15;12.05;;;7.95;;
73266;SDS011;61495;53.400;7.608;2022-11-12T13:42:44;13.82;;;8.18;;
73266;SDS011;61495;53.400;7.608;2022-11-12T13:45:21;12.18;;;7.50;;
73266;SDS011;61495;53.400;7.608;2022-11-12T13:47:47;12.65;;;8.30;;
73266;SDS011;61495;53.400;7.608;2022-11-12T13:50:17;15.18;;;8.38;;
73266;SDS011;61495;53.400;7.608;2022-11-12T13:52:46;13.77;;;8.90;;
73266;SDS011;61495;53.400;7.608;2022-11-12T13:55:13;13.98;;;9.00;;
73266;SDS011;61495;53.400;7.608;2022-11-12T13:57:40;15.50;;;8.10;;
73266;SDS011;61495;53.400;7.608;2022-11-12T14:00:06;14.45;;;9.02;;
73266;SDS011;61495;53.400;7.608;2022-11-12T14:02:42;14.02;;;8.35;;
73266;SDS011;61495;53.400;7.608;2022-11-12T14:05:18;14.55;;;8.18;;
73266;SDS011;61495;53.400;7.608;2022-11-12T14:21:12;14.88;;;7.85;;
73266;SDS011;61495;53.400;7.608;2022-11-12T14:23:41;13.50;;;8.63;;
73266;SDS011;61495;53.400;7.608;2022-11-12T14:26:11;13.02;;;8.10;;
73266;SDS011;61495;53.400;7.608;2022-11-12T14:28:37;15.13;;;7.65;;
73266;SDS011;61495;53.400;7.608;2022-11-12T14:31:10;13.90;;;8.05;;
73266;SDS011;61495;53.400;7.608;2022-11-12T14:33:38;14.13;;;8.57;;
73266;SDS011;61495;53.400;7.608;2022-11-12T14:36:13;12.85;;;7.63;;
73266;SDS011;61495;53.400;7.608;2022-11-12T14:38:41;15.55;;;7.85;;
73266;SDS011;61495;53.400;7.608;2022-11-12T14:41:21;14.13;;;8.68;;
73266;SDS011;61495;53.400;7.608;2022-11-12T14:47:19;12.70;;;7.95;;
73266;SDS011;61495;53.400;7.608;2022-11-12T14:51:45;14.97;;;8.20;;
73266;SDS011;61495;53.400;7.608;2022-11-12T14:54:15;14.70;;;8.15;;
73266;SDS011;61495;53.400;7.608;2022-11-12T14:56:50;15.73;;;8.85;;
73266;SDS011;61495;53.400;7.608;2022-11-12T14:59:16;19.02;;;10.07;;
73266;SDS011;61495;53.400;7.608;2022-11-12T15:04:42;19.63;;;12.95;;
73266;SDS011;61495;53.400;7.608;2022-11-12T15:07:31;17.08;;;10.77;;
73266;SDS011;61495;53.400;7.608;2022-11-12T15:09:59;19.58;;;11.23;;
73266;SDS011;61495;53.400;7.608;2022-11-12T15:12:31;18.25;;;10.75;;
73266;SDS011;61495;53.400;7.608;2022-11-12T15:15:08;22.23;;;11.88;;
73266;SDS011;61495;53.400;7.608;2022-11-12T15:17:42;23.13;;;11.93;;
73266;SDS011;61495;53.400;7.608;2022-11-12T15:20:12;18.67;;;10.75;;
73266;SDS011;61495;53.400;7.608;2022-11-12T15:22:40;23.40;;;12.30;;
73266;SDS011;61495;53.400;7.608;2022-11-12T15:27:50;23.48;;;13.20;;
73266;SDS011;61495;53.400;7.608;2022-11-12T15:32:44;20.23;;;11.75;;
73266;SDS011;61495;53.400;7.608;2022-11-12T15:35:30;21.30;;;11.63;;
73266;SDS011;61495;53.400;7.608;2022-11-12T15:37:58;19.88;;;12.52;;
73266;SDS011;61495;53.400;7.608;2022-11-12T15:40:26;20.38;;;12.07;;
73266;SDS011;61495;53.400;7.608;2022-11-12T15:42:52;19.33;;;11.48;;
73266;SDS011;61495;53.400;7.608;2022-11-12T15:45:19;20.45;;;12.50;;
73266;SDS011;61495;53.400;7.608;2022-11-12T15:47:45;16.67;;;10.85;;
73266;SDS011;61495;53.400;7.608;2022-11-12T15:50:21;18.10;;;10.70;;
73266;SDS011;61495;53.400;7.608;2022-11-12T15:52:48;16.52;;;10.50;;
73266;SDS011;61495;53.400;7.608;2022-11-12T15:55:14;15.98;;;10.05;;
73266;SDS011;61495;53.400;7.608;2022-11-12T15:57:41;14.32;;;9.30;;
73266;SDS011;61495;53.400;7.608;2022-11-12T16:00:14;16.45;;;9.25;;
73266;SDS011;61495;53.400;7.608;2022-11-12T16:02:42;17.58;;;10.35;;
73266;SDS011;61495;53.400;7.608;2022-11-12T16:05:13;17.92;;;10.60;;
73266;SDS011;61495;53.400;7.608;2022-11-12T16:07:40;15.57;;;8.80;;
73266;SDS011;61495;53.400;7.608;2022-11-12T16:10:05;15.55;;;8.98;;
73266;SDS011;61495;53.400;7.608;2022-11-12T16:12:32;14.20;;;8.70;;
73266;SDS011;61495;53.400;7.608;2022-11-12T16:14:58;16.00;;;8.73;;
73266;SDS011;61495;53.400;7.608;2022-11-12T16:17:25;20.33;;;9.50;;
73266;SDS011;61495;53.400;7.608;2022-11-12T16:19:50;17.95;;;9.27;;
73266;SDS011;61495;53.400;7.608;2022-11-12T16:22:16;18.05;;;9.88;;
73266;SDS011;61495;53.400;7.608;2022-11-12T16:24:41;17.05;;;9.43;;
73266;SDS011;61495;53.400;7.608;2022-11-12T16:27:09;17.83;;;9.93;;
73266;SDS011;61495;53.400;7.608;2022-11-12T16:29:37;17.08;;;9.95;;
73266;SDS011;61495;53.400;7.608;2022-11-12T16:32:02;15.77;;;9.88;;
73266;SDS011;61495;53.400;7.608;2022-11-12T16:34:28;18.38;;;10.98;;
73266;SDS011;61495;53.400;7.608;2022-11-12T16:36:54;18.60;;;11.35;;
73266;SDS011;61495;53.400;7.608;2022-11-12T16:39:20;17.25;;;10.13;;